Time;durP1;ratioP1;P1;durP2;ratioP2;P2;SDS_P1;SDS_P2;PMS_P1;PMS_P2;Temp;Humidity;BMP_temperature;BMP_pressure;BME280_temperature;BME280_humidity;BME280_pressure;Samples;Min_cycle;Max_cycle;Signal;HPM_P1;HPM_P2
2023/03/14 00:01:10;;;;;;;1.03;0.50;;;11.70;99.90;;;;;;5024484;28;20778;-70
2023/03/14 00:03:36;;;;;;;1.63;0.60;;;11.60;99.90;;;;;;5024489;28;20413;-71
2023/03/14 00:06:03;;;;;;;1.50;0.70;;;11.50;99.90;;;;;;5024443;28;20504;-72
2023/03/14 00:08:28;;;;;;;0.90;0.73;;;11.50;99.90;;;;;;5024005;28;20175;-70
2023/03/14 00:10:54;;;;;;;1.00;0.70;;;11.60;99.90;;;;;;5024654;28;20396;-71
2023/03/14 00:13:19;;;;;;;2.27;0.60;;;11.50;99.90;;;;;;5024849;28;20258;-71
2023/03/14 00:15:45;;;;;;;0.80;0.60;;;11.50;99.90;;;;;;5024253;28;20285;-71
2023/03/14 00:18:10;;;;;;;0.80;0.60;;;11.40;99.90;;;;;;5024409;28;20188;-70
2023/03/14 00:20:36;;;;;;;1.50;0.70;;;11.50;99.90;;;;;;5024888;28;20183;-73
2023/03/14 00:23:02;;;;;;;0.87;0.63;;;11.40;99.90;;;;;;5024525;28;20189;-75
2023/03/14 00:25:27;;;;;;;1.33;0.50;;;11.50;99.90;;;;;;5024355;28;20284;-71
2023/03/14 00:27:53;;;;;;;1.67;0.73;;;11.60;99.90;;;;;;5024076;28;20634;-69
2023/03/14 00:30:19;;;;;;;2.03;0.90;;;11.50;99.90;;;;;;5024449;28;20179;-70
2023/03/14 00:32:44;;;;;;;1.87;0.90;;;11.50;99.90;;;;;;5023516;28;20183;-71
2023/03/14 00:35:10;;;;;;;2.20;0.70;;;11.40;99.90;;;;;;5024210;28;20468;-70
2023/03/14 00:37:36;;;;;;;1.07;0.70;;;11.50;99.90;;;;;;5023768;28;20187;-70
2023/03/14 00:40:01;;;;;;;1.27;0.77;;;11.40;99.90;;;;;;5023928;28;20528;-69
2023/03/14 00:42:27;;;;;;;1.20;0.63;;;11.50;99.90;;;;;;5023759;28;20183;-69
2023/03/14 00:44:53;;;;;;;2.20;1.37;;;11.50;99.90;;;;;;5023724;28;20569;-71
2023/03/14 00:47:18;;;;;;;1.47;0.70;;;11.50;99.90;;;;;;5023339;28;20213;-73
2023/03/14 00:49:44;;;;;;;1.10;0.80;;;11.50;99.90;;;;;;5023746;28;20556;-73
2023/03/14 00:52:09;;;;;;;0.90;0.70;;;11.50;99.90;;;;;;5023360;28;20226;-71
2023/03/14 00:54:35;;;;;;;1.87;0.80;;;11.70;99.90;;;;;;5023860;28;20221;-70
2023/03/14 00:57:00;;;;;;;2.37;0.80;;;11.80;99.90;;;;;;5023861;28;20650;-73
2023/03/14 00:59:27;;;;;;;1.00;0.80;;;11.70;99.90;;;;;;5023651;28;20218;-76
2023/03/14 01:01:52;;;;;;;1.30;0.70;;;11.80;99.90;;;;;;5023388;28;20254;-71
2023/03/14 01:04:18;;;;;;;0.97;0.67;;;11.70;99.90;;;;;;5023430;28;20540;-69
2023/03/14 01:06:43;;;;;;;1.67;0.90;;;11.80;99.90;;;;;;5024053;28;20242;-70
2023/03/14 01:09:09;;;;;;;0.70;0.60;;;12.00;99.90;;;;;;5048297;23;20238;-72
2023/03/14 01:11:36;;;;;;;2.30;0.60;;;12.10;99.90;;;;;;5024219;28;20549;-69
2023/03/14 01:14:02;;;;;;;1.40;0.70;;;12.20;99.90;;;;;;5022788;28;20245;-70
2023/03/14 01:16:30;;;;;;;0.90;0.70;;;12.00;99.90;;;;;;5023551;28;20929;-71
2023/03/14 01:18:56;;;;;;;0.70;0.50;;;12.00;99.90;;;;;;5022130;28;20465;-70
2023/03/14 01:21:23;;;;;;;1.00;0.70;;;12.10;99.90;;;;;;5024084;28;20425;-70
2023/03/14 01:23:50;;;;;;;0.90;0.50;;;12.20;99.90;;;;;;5022724;28;20238;-70
2023/03/14 01:26:18;;;;;;;0.90;0.70;;;12.20;99.90;;;;;;5024079;28;20410;-69
2023/03/14 01:28:45;;;;;;;1.00;0.60;;;12.20;99.90;;;;;;5024180;28;21021;-71
2023/03/14 01:31:11;;;;;;;0.90;0.60;;;12.20;99.90;;;;;;5022901;28;20748;-69
2023/03/14 01:33:36;;;;;;;1.63;0.70;;;12.30;99.90;;;;;;5023676;28;20471;-70
2023/03/14 01:36:02;;;;;;;1.10;0.60;;;12.50;99.90;;;;;;5022263;28;20189;-68
2023/03/14 01:38:29;;;;;;;0.80;0.57;;;12.50;99.90;;;;;;5023583;28;20212;-72
2023/03/14 01:40:55;;;;;;;0.80;0.70;;;12.50;99.90;;;;;;5023606;28;20427;-72
2023/03/14 01:43:21;;;;;;;1.57;0.70;;;12.30;99.90;;;;;;5023636;28;20427;-72
2023/03/14 01:46:04;;;;;;;0.77;0.60;;;12.30;99.90;;;;;;5023467;28;20996;-69
2023/03/14 01:49:08;;;;;;;1.43;0.60;;;12.40;99.90;;;;;;5023395;28;20201;-75
2023/03/14 01:51:52;;;;;;;0.70;0.50;;;12.40;99.90;;;;;;4983159;28;20430;-71
2023/03/14 01:54:21;;;;;;;1.23;0.70;;;12.20;99.90;;;;;;5023475;28;20414;-70
2023/03/14 01:57:09;;;;;;;0.70;0.50;;;12.10;99.90;;;;;;5023957;28;20410;-71
2023/03/14 01:59:36;;;;;;;0.80;0.53;;;11.90;99.90;;;;;;5023855;28;20454;-71
2023/03/14 02:02:07;;;;;;;1.73;0.67;;;11.70;99.90;;;;;;5021638;28;20419;-71
2023/03/14 02:04:34;;;;;;;0.80;0.60;;;11.70;99.90;;;;;;5023641;28;20772;-71
2023/03/14 02:07:13;;;;;;;1.47;0.60;;;11.90;99.90;;;;;;5023325;28;20413;-70
2023/03/14 02:09:39;;;;;;;0.70;0.50;;;11.80;99.90;;;;;;5024022;28;20478;-69
2023/03/14 02:12:07;;;;;;;0.90;0.70;;;11.80;99.90;;;;;;5023986;28;20416;-72
2023/03/14 02:14:35;;;;;;;1.23;0.60;;;11.80;99.90;;;;;;5022260;28;20415;-67
2023/03/14 02:17:02;;;;;;;1.33;0.60;;;11.80;99.90;;;;;;5022744;28;20454;-70
2023/03/14 02:20:05;;;;;;;1.37;0.80;;;11.60;99.90;;;;;;5022965;28;20464;-71
2023/03/14 02:22:32;;;;;;;1.20;0.50;;;11.70;99.90;;;;;;5023135;28;20500;-69
2023/03/14 02:25:08;;;;;;;0.97;0.50;;;11.70;99.90;;;;;;5022541;28;20565;-70
2023/03/14 02:27:35;;;;;;;0.70;0.50;;;12.00;99.90;;;;;;5022155;28;20477;-70
2023/03/14 02:30:33;;;;;;;0.80;0.60;;;12.10;99.90;;;;;;5023549;28;20971;-71
2023/03/14 02:33:04;;;;;;;0.90;0.60;;;12.10;99.90;;;;;;4982912;28;20427;-70
2023/03/14 02:35:39;;;;;;;2.10;0.90;;;12.00;99.90;;;;;;5027101;28;20498;-69
2023/03/14 02:38:14;;;;;;;1.63;0.50;;;11.90;99.90;;;;;;5026741;28;20880;-69
2023/03/14 02:40:40;;;;;;;0.90;0.60;;;11.70;99.90;;;;;;5026953;28;20406;-70
2023/03/14 02:43:05;;;;;;;0.70;0.50;;;11.70;99.90;;;;;;5026862;28;20823;-68
2023/03/14 02:45:42;;;;;;;1.30;0.70;;;11.60;99.90;;;;;;5025545;28;20720;-69
2023/03/14 02:48:13;;;;;;;0.80;0.60;;;11.50;99.90;;;;;;5026244;28;20230;-72
2023/03/14 02:50:39;;;;;;;1.53;0.70;;;11.40;99.90;;;;;;5026934;28;20398;-70
2023/03/14 02:53:05;;;;;;;0.83;0.50;;;11.60;99.90;;;;;;5026685;28;20605;-69
2023/03/14 02:55:31;;;;;;;0.80;0.60;;;11.60;99.90;;;;;;5026832;28;20414;-69
2023/03/14 02:57:56;;;;;;;0.70;0.50;;;11.50;99.90;;;;;;5026860;28;20795;-71
2023/03/14 03:00:22;;;;;;;0.90;0.60;;;11.50;99.90;;;;;;5026793;28;20230;-70
2023/03/14 03:02:48;;;;;;;0.90;0.60;;;11.40;99.90;;;;;;5026103;28;20178;-71
2023/03/14 03:05:13;;;;;;;0.70;0.57;;;11.40;99.90;;;;;;5026970;28;20179;-71
2023/03/14 03:07:39;;;;;;;0.90;0.60;;;11.30;99.90;;;;;;5026589;28;20218;-70
2023/03/14 03:10:05;;;;;;;1.03;0.73;;;11.40;99.90;;;;;;5025732;28;20179;-70
2023/03/14 03:12:30;;;;;;;0.90;0.60;;;11.30;99.90;;;;;;5026338;28;20297;-69
2023/03/14 03:14:56;;;;;;;1.00;0.73;;;11.20;99.90;;;;;;5026485;28;21010;-70
2023/03/14 03:17:21;;;;;;;0.80;0.60;;;11.30;99.90;;;;;;5025886;28;20179;-70
2023/03/14 03:19:47;;;;;;;3.00;0.70;;;11.40;99.90;;;;;;5026188;28;20310;-72
2023/03/14 03:22:12;;;;;;;0.90;0.70;;;11.30;99.90;;;;;;5026347;28;20214;-71
2023/03/14 03:24:38;;;;;;;1.70;0.63;;;11.30;99.90;;;;;;5026031;28;20219;-70
2023/03/14 03:27:04;;;;;;;1.40;0.70;;;11.30;99.90;;;;;;5026232;28;20182;-70
2023/03/14 03:29:29;;;;;;;1.63;0.87;;;11.30;99.90;;;;;;5026079;28;20494;-69
2023/03/14 03:31:55;;;;;;;2.13;0.77;;;11.20;99.90;;;;;;5025335;28;20257;-73
2023/03/14 03:34:21;;;;;;;1.87;0.77;;;11.30;99.90;;;;;;5026086;28;20799;-70
2023/03/14 03:36:46;;;;;;;1.10;0.60;;;11.30;99.90;;;;;;5027076;28;20183;-72
2023/03/14 03:39:12;;;;;;;1.10;0.97;;;11.30;99.90;;;;;;5028902;28;20707;-72
2023/03/14 03:41:37;;;;;;;2.13;0.90;;;11.20;99.90;;;;;;5027562;28;20186;-74
2023/03/14 03:44:03;;;;;;;2.20;0.70;;;11.20;99.90;;;;;;5027550;28;20176;-71
2023/03/14 03:46:29;;;;;;;1.97;0.90;;;11.20;99.90;;;;;;5030077;28;20175;-70
2023/03/14 03:48:59;;;;;;;3.53;1.00;;;11.20;99.90;;;;;;5027464;28;20205;-71
2023/03/14 03:51:25;;;;;;;2.40;0.80;;;11.10;99.90;;;;;;5024934;28;20224;-73
2023/03/14 03:53:51;;;;;;;2.20;0.80;;;11.10;99.90;;;;;;5025494;28;20754;-70
2023/03/14 03:56:17;;;;;;;3.07;1.20;;;11.10;99.90;;;;;;5024365;28;20910;-70
2023/03/14 03:58:42;;;;;;;2.57;0.87;;;11.00;99.90;;;;;;5024998;28;20213;-69
2023/03/14 04:01:09;;;;;;;2.00;0.83;;;11.10;99.90;;;;;;5025439;28;20613;-71
2023/03/14 04:03:35;;;;;;;2.60;1.20;;;11.10;99.90;;;;;;5025167;28;20191;-71
2023/03/14 04:06:03;;;;;;;1.87;0.70;;;11.10;99.90;;;;;;5025405;28;20426;-70
2023/03/14 04:08:30;;;;;;;2.40;1.00;;;11.00;99.90;;;;;;5025218;28;21037;-73
2023/03/14 04:11:00;;;;;;;2.33;0.80;;;11.10;99.90;;;;;;5023964;28;20421;-70
2023/03/14 04:13:27;;;;;;;2.93;1.23;;;11.10;99.90;;;;;;5025148;28;20497;-70
2023/03/14 04:15:54;;;;;;;2.00;0.90;;;11.10;99.90;;;;;;5023781;28;20449;-68
2023/03/14 04:18:20;;;;;;;2.50;1.00;;;11.10;99.90;;;;;;5024881;28;20516;-69
2023/03/14 04:20:50;;;;;;;1.87;1.10;;;11.10;99.90;;;;;;5025072;28;20422;-71
2023/03/14 04:23:15;;;;;;;4.33;1.20;;;10.90;99.90;;;;;;5025197;28;20420;-69
2023/03/14 04:25:41;;;;;;;2.70;1.07;;;11.00;99.90;;;;;;5025304;28;20427;-70
2023/03/14 04:28:06;;;;;;;3.10;0.90;;;11.10;99.90;;;;;;5023294;28;20289;-73
2023/03/14 04:30:32;;;;;;;4.97;1.00;;;11.20;99.90;;;;;;5025211;28;20210;-70
2023/03/14 04:32:57;;;;;;;4.20;1.07;;;11.10;99.90;;;;;;5039729;28;20214;-70
2023/03/14 04:35:23;;;;;;;4.00;1.63;;;11.00;99.90;;;;;;5025274;28;20630;-69
2023/03/14 04:37:48;;;;;;;2.73;1.00;;;11.00;99.90;;;;;;5023101;28;20753;-70
2023/03/14 04:40:15;;;;;;;2.00;0.60;;;11.10;99.90;;;;;;5024826;28;20648;-70
2023/03/14 04:42:40;;;;;;;2.50;1.00;;;11.00;99.90;;;;;;5024904;28;20225;-70
2023/03/14 04:45:07;;;;;;;3.30;0.90;;;11.00;99.90;;;;;;5024879;28;21186;-69
2023/03/14 04:47:33;;;;;;;3.47;0.93;;;10.90;99.90;;;;;;5024122;28;20684;-69
2023/03/14 04:49:59;;;;;;;5.67;1.23;;;10.90;99.90;;;;;;5023443;28;20429;-69
2023/03/14 04:52:25;;;;;;;2.10;0.70;;;10.90;99.90;;;;;;5024371;28;20806;-69
2023/03/14 04:54:50;;;;;;;2.30;1.23;;;10.90;99.90;;;;;;5023666;28;20235;-69
2023/03/14 04:57:16;;;;;;;2.37;0.90;;;11.00;99.90;;;;;;5022878;28;20278;-69
2023/03/14 04:59:41;;;;;;;3.73;1.10;;;11.10;99.90;;;;;;5024069;28;20202;-70
2023/03/14 05:02:07;;;;;;;3.33;1.00;;;11.10;99.90;;;;;;5022867;28;20238;-69
2023/03/14 05:04:33;;;;;;;2.23;1.00;;;11.10;99.90;;;;;;5023546;28;20611;-68
2023/03/14 05:06:59;;;;;;;4.33;1.23;;;11.10;99.90;;;;;;5024409;28;20521;-69
2023/03/14 05:09:25;;;;;;;4.00;1.10;;;11.20;99.90;;;;;;5024087;28;20988;-70
2023/03/14 05:11:50;;;;;;;2.20;1.17;;;11.10;99.90;;;;;;5022505;28;20690;-70
2023/03/14 05:14:16;;;;;;;4.00;1.17;;;11.00;99.90;;;;;;5024203;28;20233;-69
2023/03/14 05:16:42;;;;;;;2.20;0.93;;;10.90;99.90;;;;;;5022320;28;20188;-69
2023/03/14 05:19:07;;;;;;;2.47;1.07;;;10.90;99.90;;;;;;5022376;28;20213;-70
2023/03/14 05:21:33;;;;;;;1.57;0.90;;;10.90;99.90;;;;;;5022299;28;20665;-72
2023/03/14 05:23:59;;;;;;;3.33;1.07;;;10.90;99.90;;;;;;5024163;28;20219;-70
2023/03/14 05:26:24;;;;;;;1.20;0.80;;;11.00;99.90;;;;;;5023868;28;20174;-71
2023/03/14 05:28:50;;;;;;;2.10;1.00;;;10.90;99.90;;;;;;5023695;28;20454;-70
2023/03/14 05:31:15;;;;;;;4.40;1.37;;;10.90;99.90;;;;;;5023860;28;20652;-73
2023/03/14 05:33:41;;;;;;;3.87;1.30;;;10.80;99.90;;;;;;5023567;28;20645;-71
2023/03/14 05:36:07;;;;;;;2.13;0.87;;;10.70;99.90;;;;;;5022438;28;20189;-70
2023/03/14 05:38:33;;;;;;;3.53;1.20;;;10.90;99.90;;;;;;5023458;28;20203;-70
2023/03/14 05:40:58;;;;;;;2.17;1.00;;;10.90;99.90;;;;;;5023762;28;20456;-69
2023/03/14 05:43:24;;;;;;;4.90;1.40;;;11.10;99.90;;;;;;5023852;28;20644;-71
2023/03/14 05:45:49;;;;;;;3.27;1.10;;;11.20;99.90;;;;;;5022231;28;20186;-69
2023/03/14 05:48:16;;;;;;;3.73;1.07;;;11.00;99.90;;;;;;5023124;28;21386;-69
2023/03/14 05:50:42;;;;;;;2.10;1.00;;;11.10;99.90;;;;;;5022340;28;20188;-70
2023/03/14 05:53:08;;;;;;;2.90;1.07;;;11.10;99.90;;;;;;5023351;28;20426;-69
2023/03/14 05:55:33;;;;;;;1.77;0.63;;;11.10;99.90;;;;;;5022371;28;20424;-71
2023/03/14 05:57:59;;;;;;;1.70;0.80;;;11.00;99.90;;;;;;5023502;28;20197;-72
2023/03/14 06:00:24;;;;;;;1.80;0.77;;;11.00;99.90;;;;;;5023583;28;20211;-72
2023/03/14 06:02:50;;;;;;;2.90;1.10;;;11.00;99.90;;;;;;5023274;28;20260;-70
2023/03/14 06:05:16;;;;;;;2.03;1.00;;;11.10;99.90;;;;;;5023486;28;20183;-70
2023/03/14 06:07:41;;;;;;;5.17;1.20;;;11.10;99.90;;;;;;5026834;28;20251;-73
2023/03/14 06:10:07;;;;;;;2.97;0.80;;;11.10;99.90;;;;;;5026117;28;20274;-70
2023/03/14 06:12:33;;;;;;;1.00;0.70;;;11.10;99.90;;;;;;5027651;28;20184;-70
2023/03/14 06:14:58;;;;;;;4.87;1.23;;;11.00;99.90;;;;;;5025436;28;20431;-70
2023/03/14 06:17:24;;;;;;;3.70;0.90;;;11.10;99.90;;;;;;5027198;28;20183;-68
2023/03/14 06:19:49;;;;;;;2.57;0.90;;;10.90;99.90;;;;;;5026875;28;20194;-73
2023/03/14 06:22:15;;;;;;;2.40;0.90;;;11.00;99.90;;;;;;5027909;28;20229;-69
2023/03/14 06:24:41;;;;;;;2.73;0.97;;;11.20;99.90;;;;;;5026920;28;20187;-69
2023/03/14 06:27:06;;;;;;;2.07;0.90;;;11.10;99.90;;;;;;5027013;28;20183;-70
2023/03/14 06:29:32;;;;;;;2.03;0.90;;;11.10;99.90;;;;;;5027521;28;20186;-69
2023/03/14 06:31:58;;;;;;;1.23;0.80;;;11.10;99.90;;;;;;5027604;28;20587;-71
2023/03/14 06:34:23;;;;;;;5.67;0.93;;;11.20;99.90;;;;;;5027621;28;20180;-68
2023/03/14 06:36:49;;;;;;;2.60;1.10;;;11.20;99.90;;;;;;5027375;28;20262;-69
2023/03/14 06:39:14;;;;;;;1.67;1.00;;;11.20;99.90;;;;;;5026852;28;20206;-70
2023/03/14 06:41:40;;;;;;;1.93;0.87;;;11.10;99.90;;;;;;5027297;28;20668;-73
2023/03/14 06:44:05;;;;;;;2.70;0.80;;;11.20;99.90;;;;;;5026806;28;20175;-72
2023/03/14 06:46:31;;;;;;;1.73;0.90;;;11.30;99.90;;;;;;5027246;28;20179;-71
2023/03/14 06:48:57;;;;;;;2.20;1.20;;;11.40;99.90;;;;;;5026139;28;20199;-70
2023/03/14 06:51:22;;;;;;;3.00;1.47;;;11.40;99.90;;;;;;5026895;28;20234;-73
2023/03/14 06:53:48;;;;;;;2.20;1.40;;;11.50;99.90;;;;;;5025545;28;21410;-71
2023/03/14 06:56:14;;;;;;;2.00;0.90;;;11.40;99.90;;;;;;5026892;28;20805;-69
2023/03/14 06:58:39;;;;;;;3.70;1.13;;;11.50;99.90;;;;;;5026673;28;20616;-71
2023/03/14 07:01:06;;;;;;;2.47;0.80;;;11.50;99.90;;;;;;5025125;28;20183;-70
2023/03/14 07:03:32;;;;;;;1.67;0.80;;;11.40;99.90;;;;;;5026072;28;20182;-71
2023/03/14 07:05:58;;;;;;;2.90;0.83;;;11.50;99.90;;;;;;5026583;28;20407;-72
2023/03/14 07:08:23;;;;;;;2.13;0.90;;;11.60;99.90;;;;;;5050098;23;20545;-67
2023/03/14 07:10:49;;;;;;;2.50;0.93;;;11.70;99.90;;;;;;5022311;28;20216;-71
2023/03/14 07:13:14;;;;;;;2.30;0.83;;;11.70;99.90;;;;;;5025774;28;20569;-67
2023/03/14 07:15:40;;;;;;;1.83;0.80;;;11.80;99.90;;;;;;5025466;28;20198;-69
2023/03/14 07:18:06;;;;;;;1.77;0.70;;;11.90;99.90;;;;;;5024368;28;20205;-71
2023/03/14 07:20:32;;;;;;;2.03;0.63;;;11.70;99.90;;;;;;5025081;28;20213;-68
2023/03/14 07:22:59;;;;;;;4.30;0.80;;;11.70;99.90;;;;;;5025377;28;20439;-70
2023/03/14 07:25:25;;;;;;;1.03;0.83;;;11.90;99.90;;;;;;5025448;28;20418;-69
2023/03/14 07:27:51;;;;;;;1.30;0.87;;;12.10;99.90;;;;;;5024833;28;20427;-68
2023/03/14 07:30:17;;;;;;;3.23;0.70;;;12.10;99.90;;;;;;5025159;28;20444;-72
2023/03/14 07:32:42;;;;;;;4.10;1.20;;;12.00;99.90;;;;;;5023774;28;20175;-68
2023/03/14 07:35:09;;;;;;;1.20;0.70;;;12.10;99.90;;;;;;5025043;28;20663;-69
2023/03/14 07:37:34;;;;;;;2.63;0.80;;;12.00;99.90;;;;;;5025020;28;20270;-69
2023/03/14 07:40:00;;;;;;;1.20;0.60;;;12.00;99.90;;;;;;5023840;28;20904;-72
2023/03/14 07:42:25;;;;;;;2.40;0.70;;;12.10;99.90;;;;;;5025109;28;20175;-69
2023/03/14 07:44:51;;;;;;;1.70;0.70;;;12.30;99.90;;;;;;5024924;28;20179;-69
2023/03/14 07:47:16;;;;;;;1.57;0.90;;;12.50;99.90;;;;;;5024780;28;20574;-67
2023/03/14 07:49:42;;;;;;;1.10;0.70;;;12.70;99.90;;;;;;5024211;28;20195;-67
2023/03/14 07:52:07;;;;;;;3.33;0.60;;;12.70;99.90;;;;;;5024143;28;20299;-70
2023/03/14 07:54:33;;;;;;;3.67;0.77;;;12.60;99.90;;;;;;5024317;28;20558;-67
2023/03/14 07:57:00;;;;;;;1.67;0.87;;;12.60;99.90;;;;;;5024768;28;21071;-70
2023/03/14 07:59:27;;;;;;;1.63;0.90;;;12.70;99.90;;;;;;5023668;28;20293;-67
2023/03/14 08:01:52;;;;;;;4.87;1.00;;;12.70;99.90;;;;;;5024343;28;20428;-72
2023/03/14 08:04:18;;;;;;;1.73;0.60;;;12.60;99.90;;;;;;5024622;28;20416;-69
2023/03/14 08:06:43;;;;;;;2.30;0.67;;;12.60;99.90;;;;;;5023468;28;20260;-69
2023/03/14 08:09:09;;;;;;;0.80;0.50;;;12.50;99.90;;;;;;5024291;28;20232;-67
2023/03/14 08:11:35;;;;;;;1.50;0.70;;;12.70;99.90;;;;;;5024440;28;20268;-68
2023/03/14 08:14:00;;;;;;;1.70;0.63;;;12.70;99.90;;;;;;5024449;28;20767;-69
2023/03/14 08:16:26;;;;;;;1.67;0.67;;;12.90;99.90;;;;;;5023976;28;20256;-67
2023/03/14 08:18:51;;;;;;;2.70;0.70;;;13.00;99.90;;;;;;5024349;28;20209;-69
2023/03/14 08:21:17;;;;;;;1.13;0.60;;;13.10;99.90;;;;;;5023879;28;20173;-70
2023/03/14 08:23:42;;;;;;;0.70;0.47;;;13.10;99.90;;;;;;5024281;28;20261;-72
2023/03/14 08:26:08;;;;;;;3.10;2.20;;;13.00;99.90;;;;;;5024040;28;20757;-68
2023/03/14 08:28:34;;;;;;;1.00;0.60;;;13.10;99.90;;;;;;5023195;28;20304;-67
2023/03/14 08:31:00;;;;;;;2.57;0.70;;;13.10;99.90;;;;;;5023906;28;20179;-71
2023/03/14 08:33:28;;;;;;;1.40;0.70;;;13.20;99.90;;;;;;5024111;28;20182;-68
2023/03/14 08:35:55;;;;;;;2.43;0.83;;;13.50;99.90;;;;;;5024516;28;20465;-67
2023/03/14 08:38:21;;;;;;;1.37;0.60;;;13.70;99.90;;;;;;5023821;28;20441;-68
2023/03/14 08:40:46;;;;;;;1.77;0.73;;;13.90;99.90;;;;;;5024120;28;20826;-68
2023/03/14 08:43:12;;;;;;;1.57;0.60;;;14.20;99.90;;;;;;5023972;28;20179;-68
2023/03/14 08:45:38;;;;;;;6.63;0.80;;;14.20;99.90;;;;;;5023598;28;20651;-71
2023/03/14 08:48:04;;;;;;;1.03;0.60;;;14.20;99.90;;;;;;5023633;28;20198;-67
2023/03/14 08:50:29;;;;;;;7.23;0.80;;;13.90;99.90;;;;;;5023465;28;20391;-69
2023/03/14 08:52:55;;;;;;;0.93;0.67;;;13.70;99.90;;;;;;5023380;28;20409;-71
2023/03/14 08:55:21;;;;;;;0.87;0.60;;;13.60;99.90;;;;;;5023782;28;20187;-68
2023/03/14 08:57:46;;;;;;;1.70;0.80;;;13.40;99.90;;;;;;5023523;28;20179;-68
2023/03/14 09:00:14;;;;;;;0.70;0.50;;;13.60;99.90;;;;;;5023043;28;20295;-69
2023/03/14 09:02:41;;;;;;;3.03;0.80;;;13.60;99.90;;;;;;5023565;28;20332;-68
2023/03/14 09:05:07;;;;;;;1.27;0.53;;;13.70;99.90;;;;;;5023596;28;20465;-70
2023/03/14 09:07:33;;;;;;;2.30;0.60;;;14.00;99.90;;;;;;5022960;28;20422;-70
2023/03/14 09:09:58;;;;;;;1.17;0.60;;;14.00;99.90;;;;;;5023792;28;20425;-69
2023/03/14 09:12:24;;;;;;;2.77;0.80;;;14.00;99.90;;;;;;5023922;28;20195;-72
2023/03/14 09:14:49;;;;;;;1.00;0.70;;;13.90;99.90;;;;;;5023809;28;20186;-71
2023/03/14 09:17:15;;;;;;;1.23;0.50;;;13.80;99.90;;;;;;5023492;28;20196;-69
2023/03/14 09:19:40;;;;;;;2.13;0.50;;;13.90;99.90;;;;;;5023492;28;20293;-72
2023/03/14 09:22:06;;;;;;;1.00;0.57;;;14.30;99.90;;;;;;5023476;28;20552;-69
2023/03/14 09:24:31;;;;;;;2.03;0.70;;;14.40;99.90;;;;;;5023283;28;20342;-69
2023/03/14 09:26:58;;;;;;;1.57;0.70;;;14.30;99.90;;;;;;5023459;28;20188;-68
2023/03/14 09:29:24;;;;;;;1.63;0.50;;;14.20;99.90;;;;;;5022888;28;20604;-68
2023/03/14 09:31:50;;;;;;;1.20;0.60;;;14.20;99.90;;;;;;5023607;28;20408;-70
2023/03/14 09:34:16;;;;;;;1.13;0.50;;;14.50;99.90;;;;;;5023178;28;20419;-71
2023/03/14 09:36:44;;;;;;;1.73;0.60;;;14.50;99.90;;;;;;5022891;28;20181;-73
2023/03/14 09:39:09;;;;;;;1.00;0.57;;;14.70;99.90;;;;;;5022986;28;20486;-68
2023/03/14 09:41:40;;;;;;;1.10;0.70;;;14.30;99.90;;;;;;5021719;28;20884;-69
2023/03/14 09:44:19;;;;;;;1.20;0.53;;;14.20;99.90;;;;;;5021958;28;20220;-68
2023/03/14 09:46:50;;;;;;;0.77;0.57;;;14.20;99.90;;;;;;5023014;28;20459;-68
2023/03/14 09:49:29;;;;;;;1.03;0.60;;;14.10;99.90;;;;;;5023441;28;20894;-69
2023/03/14 09:51:57;;;;;;;2.00;0.53;;;14.00;99.90;;;;;;5022916;28;20434;-69
2023/03/14 09:54:41;;;;;;;0.77;0.50;;;14.20;99.90;;;;;;5023399;28;20734;-69
2023/03/14 09:57:13;;;;;;;1.10;0.60;;;14.20;99.90;;;;;;5022989;28;21539;-69
2023/03/14 09:59:39;;;;;;;1.60;0.70;;;14.00;99.90;;;;;;5023013;28;20508;-68
2023/03/14 10:02:28;;;;;;;1.50;0.77;;;14.20;99.90;;;;;;5022790;28;20435;-69
2023/03/14 10:04:54;;;;;;;1.60;0.80;;;13.90;99.90;;;;;;5022697;28;20409;-69
2023/03/14 10:07:31;;;;;;;1.10;0.60;;;14.00;99.90;;;;;;5022810;28;20814;-68
2023/03/14 10:09:58;;;;;;;1.20;0.70;;;14.00;99.90;;;;;;5022793;28;20973;-67
2023/03/14 10:12:35;;;;;;;1.00;0.53;;;14.40;99.90;;;;;;5022511;28;20418;-72
2023/03/14 10:15:09;;;;;;;0.90;0.50;;;14.50;99.90;;;;;;5022132;28;20774;-69
2023/03/14 10:17:43;;;;;;;0.90;0.40;;;14.30;99.90;;;;;;5022905;28;20917;-69
2023/03/14 10:20:34;;;;;;;0.80;0.50;;;14.20;99.90;;;;;;5022947;28;21025;-70
2023/03/14 10:23:12;;;;;;;1.07;0.50;;;14.00;99.90;;;;;;5011118;28;20494;-69
2023/03/14 10:25:57;;;;;;;1.20;0.53;;;14.10;99.90;;;;;;5022739;28;20429;-70
2023/03/14 10:28:25;;;;;;;0.93;0.60;;;14.40;99.90;;;;;;5022384;28;20453;-70
2023/03/14 10:30:50;;;;;;;0.97;0.50;;;14.70;99.90;;;;;;5022800;28;20462;-70
2023/03/14 10:33:28;;;;;;;1.10;0.40;;;14.50;99.90;;;;;;5024615;28;20918;-71
2023/03/14 10:36:00;;;;;;;1.40;0.60;;;14.60;99.90;;;;;;5025324;28;20237;-71
2023/03/14 10:38:32;;;;;;;1.07;0.50;;;14.40;99.90;;;;;;5024408;28;20460;-73
2023/03/14 10:40:59;;;;;;;1.70;0.70;;;14.40;99.90;;;;;;5025387;28;20572;-70
2023/03/14 10:43:35;;;;;;;1.73;0.83;;;14.50;99.90;;;;;;5024767;28;20419;-70
2023/03/14 10:46:23;;;;;;;0.80;0.47;;;14.70;99.90;;;;;;5021144;28;20882;-69
2023/03/14 10:48:49;;;;;;;1.70;0.80;;;14.80;99.90;;;;;;5022064;28;20435;-69
2023/03/14 10:51:18;;;;;;;0.70;0.50;;;14.70;99.90;;;;;;5022065;28;20518;-72
2023/03/14 10:53:45;;;;;;;0.83;0.43;;;14.80;99.90;;;;;;5025086;28;20415;-68
2023/03/14 10:56:21;;;;;;;1.00;0.50;;;14.80;99.90;;;;;;5025853;28;20892;-69
2023/03/14 10:58:49;;;;;;;1.20;0.47;;;14.80;99.90;;;;;;5024852;28;20536;-68
2023/03/14 11:01:37;;;;;;;0.80;0.50;;;14.70;99.90;;;;;;5025752;28;20465;-70
2023/03/14 11:04:21;;;;;;;1.40;0.60;;;14.50;99.90;;;;;;5025351;28;20417;-70
2023/03/14 11:07:27;;;;;;;0.93;0.50;;;14.50;99.90;;;;;;5025481;28;20412;-69
2023/03/14 11:10:18;;;;;;;0.70;0.50;;;14.40;99.90;;;;;;5025795;28;21043;-68
2023/03/14 11:13:29;;;;;;;1.63;0.70;;;14.10;99.90;;;;;;5024220;28;20999;-71
2023/03/14 11:16:39;;;;;;;0.80;0.60;;;13.80;99.90;;;;;;5025624;28;20420;-69
2023/03/14 11:19:29;;;;;;;1.40;0.50;;;13.90;99.90;;;;;;5025212;28;21009;-71
2023/03/14 11:22:03;;;;;;;1.77;0.60;;;13.80;99.90;;;;;;5025061;28;20426;-69
2023/03/14 11:24:40;;;;;;;0.90;0.50;;;13.70;99.90;;;;;;5025831;28;20441;-68
2023/03/14 11:27:17;;;;;;;0.80;0.50;;;13.40;99.90;;;;;;5025774;28;20631;-71
2023/03/14 11:30:00;;;;;;;1.20;0.50;;;13.20;99.90;;;;;;5025272;28;20816;-74
2023/03/14 11:32:38;;;;;;;0.80;0.50;;;13.10;99.90;;;;;;5025287;28;20838;-70
2023/03/14 11:35:15;;;;;;;0.80;0.50;;;13.10;99.90;;;;;;5025424;28;20897;-68
2023/03/14 11:37:46;;;;;;;2.13;0.50;;;13.20;99.90;;;;;;5024818;28;20465;-69
2023/03/14 11:40:21;;;;;;;0.90;0.50;;;13.20;99.90;;;;;;5024961;28;20863;-70
2023/03/14 11:42:57;;;;;;;0.70;0.43;;;13.20;99.90;;;;;;5025199;28;20453;-71
2023/03/14 11:45:43;;;;;;;0.77;0.50;;;13.40;99.90;;;;;;5024904;28;20548;-70
2023/03/14 11:48:45;;;;;;;1.00;0.50;;;13.70;99.90;;;;;;5025234;28;20433;-69
2023/03/14 11:51:20;;;;;;;0.80;0.50;;;13.40;99.90;;;;;;5005452;28;20838;-68
2023/03/14 11:53:50;;;;;;;0.80;0.50;;;13.40;99.90;;;;;;5025117;28;20413;-70
2023/03/14 11:56:42;;;;;;;1.37;0.60;;;13.40;99.90;;;;;;5025400;28;20494;-71
2023/03/14 11:59:17;;;;;;;2.10;0.57;;;13.40;99.90;;;;;;5025114;28;20465;-73
2023/03/14 12:01:50;;;;;;;1.57;0.50;;;13.60;99.90;;;;;;5025757;28;20443;-71
2023/03/14 12:04:42;;;;;;;1.87;0.70;;;13.50;99.90;;;;;;5025875;28;20947;-70
2023/03/14 12:07:20;;;;;;;1.07;0.60;;;13.70;99.90;;;;;;5026372;28;20458;-71
2023/03/14 12:09:47;;;;;;;0.80;0.60;;;14.10;99.90;;;;;;5025026;28;20641;-71
2023/03/14 12:12:18;;;;;;;0.70;0.47;;;14.30;99.90;;;;;;5024829;28;20507;-71
2023/03/14 12:14:55;;;;;;;0.70;0.43;;;14.30;99.90;;;;;;5025082;28;20404;-69
2023/03/14 12:17:23;;;;;;;0.77;0.47;;;14.10;99.90;;;;;;5026052;28;20875;-70
2023/03/14 12:20:06;;;;;;;0.87;0.70;;;13.60;99.90;;;;;;5027043;28;20508;-72
2023/03/14 12:22:41;;;;;;;0.90;0.57;;;13.40;99.90;;;;;;5027361;28;20410;-71
2023/03/14 12:25:23;;;;;;;0.90;0.50;;;12.90;99.90;;;;;;5028039;28;20420;-70
2023/03/14 12:28:11;;;;;;;1.00;0.50;;;12.90;99.90;;;;;;5029751;28;20434;-72
2023/03/14 12:30:40;;;;;;;0.90;0.50;;;13.30;99.90;;;;;;5028321;28;20502;-70
2023/03/14 12:33:17;;;;;;;1.00;0.70;;;14.00;99.90;;;;;;5030209;28;20504;-69
2023/03/14 12:35:45;;;;;;;0.80;0.50;;;14.70;99.90;;;;;;5030018;28;20416;-70
2023/03/14 12:38:28;;;;;;;0.90;0.60;;;14.60;99.90;;;;;;5030131;28;20447;-74
2023/03/14 12:41:20;;;;;;;1.10;0.70;;;13.90;99.90;;;;;;5030516;28;20445;-69
2023/03/14 12:43:46;;;;;;;1.60;0.90;;;13.40;99.90;;;;;;5021852;28;20483;-70
2023/03/14 12:46:18;;;;;;;0.93;0.60;;;13.50;99.90;;;;;;5027059;28;20420;-70
2023/03/14 12:48:47;;;;;;;1.30;0.73;;;13.90;99.90;;;;;;5024100;28;20456;-70
2023/03/14 12:51:39;;;;;;;0.80;0.60;;;14.50;99.90;;;;;;5023925;28;20430;-69
2023/03/14 12:54:21;;;;;;;2.20;1.03;;;15.70;99.50;;;;;;5023192;28;20418;-68
2023/03/14 12:57:22;;;;;;;1.57;0.70;;;16.80;96.50;;;;;;5023510;28;20398;-70
2023/03/14 12:59:52;;;;;;;1.30;0.77;;;16.40;95.10;;;;;;5023747;28;20539;-69